createdAt,value
2022-10-15T00:00:09.587Z,98418.78
2022-10-15T00:01:15.497Z,98427.00
2022-10-15T00:02:18.594Z,98429.16
2022-10-15T00:03:22.685Z,98426.25
2022-10-15T00:04:25.758Z,98424.16
2022-10-15T00:05:30.015Z,98421.25
2022-10-15T00:06:33.163Z,98422.69
2022-10-15T00:07:37.296Z,98420.63
2022-10-15T00:08:42.053Z,98426.22
2022-10-15T00:09:46.006Z,98423.31
2022-10-15T00:10:48.975Z,98424.63
2022-10-15T00:11:53.076Z,98420.88
2022-10-15T00:12:56.153Z,98420.44
2022-10-15T00:14:01.689Z,98427.78
2022-10-15T00:15:05.563Z,98416.13
2022-10-15T00:16:10.717Z,98429.47
2022-10-15T00:17:13.641Z,98428.34
2022-10-15T00:18:17.583Z,98423.50
2022-10-15T00:19:21.495Z,98419.75
2022-10-15T00:20:24.376Z,98415.06
2022-10-15T00:21:28.752Z,98421.56
2022-10-15T00:22:31.665Z,98415.22
2022-10-15T00:23:35.814Z,98407.09
2022-10-15T00:24:40.356Z,98408.41
2022-10-15T00:25:44.356Z,98413.38
2022-10-15T00:26:47.224Z,98405.25
2022-10-15T00:27:51.185Z,98408.56
2022-10-15T00:28:55.972Z,98405.63
2022-10-15T00:30:00.689Z,98408.94
2022-10-15T00:31:06.160Z,98408.59
2022-10-15T00:32:10.137Z,98410.09
2022-10-15T00:33:15.425Z,98406.47
2022-10-15T00:34:19.447Z,98414.00
2022-10-15T00:35:23.102Z,98401.88
2022-10-15T00:36:28.626Z,98402.59
2022-10-15T00:37:31.558Z,98397.25
2022-10-15T00:38:35.624Z,98398.00
2022-10-15T00:39:39.974Z,98404.84
2022-10-15T00:40:44.337Z,98398.69
2022-10-15T00:41:47.387Z,98395.97
2022-10-15T00:42:52.437Z,98398.47
2022-10-15T00:43:56.776Z,98392.47
2022-10-15T00:45:01.471Z,98393.38
2022-10-15T00:46:04.563Z,98397.75
2022-10-15T00:47:15.275Z,98402.94
2022-10-15T00:48:18.205Z,98401.16
2022-10-15T00:49:26.761Z,98404.38
2022-10-15T00:50:29.747Z,98399.03
2022-10-15T00:51:38.426Z,98393.63
2022-10-15T00:52:45.215Z,98397.66
2022-10-15T00:53:50.148Z,98398.34
2022-10-15T00:54:58.755Z,98394.72
2022-10-15T00:56:03.434Z,98388.44
2022-10-15T00:57:06.781Z,98392.59
2022-10-15T00:59:22.354Z,98388.78
2022-10-15T01:00:26.368Z,98390.34
2022-10-15T01:01:30.108Z,98389.25
2022-10-15T01:02:34.175Z,98383.72
2022-10-15T01:03:37.186Z,98382.66
2022-10-15T01:04:42.476Z,98383.22
2022-10-15T01:05:49.268Z,98383.94
2022-10-15T01:06:52.230Z,98383.69
2022-10-15T01:07:56.234Z,98379.22
2022-10-15T01:09:00.146Z,98378.97
2022-10-15T01:10:07.184Z,98375.44
2022-10-15T01:11:18.497Z,98370.81
2022-10-15T01:12:30.516Z,98375.09
2022-10-15T01:13:36.558Z,98382.03
2022-10-15T01:14:47.427Z,98378.75
2022-10-15T01:15:55.600Z,98377.78
2022-10-15T01:17:08.206Z,98366.44
2022-10-15T01:18:14.866Z,98365.59
2022-10-15T01:19:30.217Z,98375.19
2022-10-15T01:20:57.466Z,98365.03
2022-10-15T01:22:03.746Z,98368.81
2022-10-15T01:23:28.205Z,98368.09
2022-10-15T01:25:00.293Z,98369.31
2022-10-15T01:26:19.049Z,98359.38
2022-10-15T01:27:35.722Z,98368.59
2022-10-15T01:28:44.925Z,98362.94
2022-10-15T01:30:13.144Z,98359.16
2022-10-15T01:31:22.284Z,98357.97
2022-10-15T01:32:29.806Z,98353.38
2022-10-15T01:33:38.846Z,98355.63
2022-10-15T01:34:44.703Z,98360.22
2022-10-15T01:35:51.337Z,98356.31
2022-10-15T01:36:59.374Z,98351.47
2022-10-15T01:38:09.907Z,98357.00
2022-10-15T01:39:17.283Z,98348.75
2022-10-15T01:40:22.886Z,98353.44
2022-10-15T01:41:30.516Z,98349.66
2022-10-15T01:42:38.114Z,98350.97
2022-10-15T01:43:46.567Z,98349.63
2022-10-15T01:45:08.117Z,98353.63
2022-10-15T01:46:28.284Z,98352.44
2022-10-15T01:47:44.671Z,98356.31
2022-10-15T01:48:49.448Z,98361.72
2022-10-15T01:49:53.976Z,98354.06
2022-10-15T01:51:01.964Z,98350.72
2022-10-15T01:52:11.606Z,98350.97
2022-10-15T01:53:16.588Z,98346.00
2022-10-15T01:54:21.397Z,98346.94
2022-10-15T01:55:25.768Z,98355.75
2022-10-15T01:56:31.063Z,98346.31
2022-10-15T01:57:35.016Z,98348.34
2022-10-15T01:58:40.677Z,98339.72
2022-10-15T01:59:44.345Z,98349.25
2022-10-15T02:00:49.137Z,98344.06
2022-10-15T02:01:56.161Z,98352.69
2022-10-15T02:03:02.398Z,98337.84
2022-10-15T02:04:19.281Z,98338.47
2022-10-15T02:05:27.936Z,98341.75
2022-10-15T02:06:34.160Z,98340.81
2022-10-15T02:07:45.115Z,98339.78
2022-10-15T02:08:56.984Z,98341.28
2022-10-15T02:10:07.857Z,98339.31
2022-10-15T02:11:12.879Z,98334.75
2022-10-15T02:12:32.058Z,98336.88
2022-10-15T02:13:45.596Z,98334.84
2022-10-15T02:14:54.846Z,98335.47
2022-10-15T02:16:08.546Z,98338.53
2022-10-15T02:17:14.503Z,98331.38
2022-10-15T02:18:20.994Z,98336.31
2022-10-15T02:19:30.276Z,98335.97
2022-10-15T02:20:43.423Z,98330.56
2022-10-15T02:21:48.416Z,98321.59
2022-10-15T02:22:58.276Z,98323.00
2022-10-15T02:24:08.115Z,98328.66
2022-10-15T02:25:17.016Z,98323.25
2022-10-15T02:26:22.066Z,98325.50
2022-10-15T02:27:26.466Z,98325.28
2022-10-15T02:28:30.318Z,98321.63
2022-10-15T02:29:36.955Z,98317.84
2022-10-15T02:30:40.114Z,98315.94
2022-10-15T02:31:49.185Z,98316.75
2022-10-15T02:32:56.836Z,98320.19
2022-10-15T02:34:04.476Z,98320.91
2022-10-15T02:35:08.804Z,98318.31
2022-10-15T02:36:16.643Z,98317.38
2022-10-15T02:37:21.814Z,98319.13
2022-10-15T02:38:27.215Z,98315.59
2022-10-15T02:39:30.578Z,98319.84
2022-10-15T02:40:36.907Z,98317.16
2022-10-15T02:41:40.397Z,98317.16
2022-10-15T02:42:47.125Z,98309.22
2022-10-15T02:43:50.136Z,98310.03
2022-10-15T02:44:54.865Z,98309.09
2022-10-15T02:45:57.833Z,98304.97
2022-10-15T02:47:02.721Z,98307.66
2022-10-15T02:48:08.441Z,98305.06
2022-10-15T02:49:12.595Z,98310.53
2022-10-15T02:50:15.618Z,98315.94
2022-10-15T02:51:19.645Z,98308.28
2022-10-15T02:52:22.777Z,98317.94
2022-10-15T02:53:26.940Z,98312.06
2022-10-15T02:54:30.574Z,98318.06
2022-10-15T02:55:37.802Z,98315.47
2022-10-15T02:56:40.762Z,98310.28
2022-10-15T02:57:45.444Z,98305.91
2022-10-15T02:58:48.516Z,98298.84
2022-10-15T02:59:52.497Z,98300.38
2022-10-15T03:00:55.856Z,98297.75
2022-10-15T03:01:59.906Z,98296.00
2022-10-15T03:03:03.975Z,98293.41
2022-10-15T03:04:09.548Z,98296.81
2022-10-15T03:05:13.464Z,98296.00
2022-10-15T03:06:17.636Z,98292.69
2022-10-15T03:07:21.036Z,98302.34
2022-10-15T03:08:26.125Z,98294.81
2022-10-15T03:09:29.346Z,98300.25
2022-10-15T03:10:33.324Z,98297.91
2022-10-15T03:11:36.396Z,98292.81
2022-10-15T03:12:40.288Z,98293.88
2022-10-15T03:13:43.371Z,98296.59
2022-10-15T03:14:47.396Z,98298.47
2022-10-15T03:15:50.684Z,98289.97
2022-10-15T03:16:54.767Z,98302.22
2022-10-15T03:17:57.745Z,98295.53
2022-10-15T03:19:01.968Z,98294.81
2022-10-15T03:20:07.354Z,98301.88
2022-10-15T03:21:14.554Z,98296.09
2022-10-15T03:22:17.874Z,98292.91
2022-10-15T03:23:30.765Z,98291.38
2022-10-15T03:24:49.585Z,98289.03
2022-10-15T03:25:59.684Z,98281.47
2022-10-15T03:27:03.096Z,98276.28
2022-10-15T03:28:07.306Z,98279.81
2022-10-15T03:29:13.896Z,98276.53
2022-10-15T03:30:31.613Z,98272.50
2022-10-15T03:31:34.724Z,98276.94
2022-10-15T03:32:41.047Z,98268.47
2022-10-15T03:33:44.041Z,98270.38
2022-10-15T03:34:48.061Z,98272.22
2022-10-15T03:35:54.756Z,98270.94
2022-10-15T03:36:59.330Z,98274.59
2022-10-15T03:38:02.314Z,98273.03
2022-10-15T03:39:08.485Z,98281.88
2022-10-15T03:40:14.601Z,98273.50
2022-10-15T03:41:20.426Z,98280.47
2022-10-15T03:42:24.960Z,98272.88
2022-10-15T03:43:29.176Z,98277.13
2022-10-15T03:44:36.406Z,98271.94
2022-10-15T03:45:45.836Z,98270.19
2022-10-15T03:46:57.920Z,98266.75
2022-10-15T03:48:06.994Z,98275.47
2022-10-15T03:49:10.994Z,98272.19
2022-10-15T03:50:15.157Z,98271.59
2022-10-15T03:51:23.463Z,98269.13
2022-10-15T03:52:35.954Z,98275.34
2022-10-15T03:53:39.004Z,98273.81
2022-10-15T03:54:43.575Z,98274.63
2022-10-15T03:55:47.543Z,98270.47
2022-10-15T03:56:52.174Z,98271.44
2022-10-15T03:58:08.892Z,98273.31
2022-10-15T03:59:17.658Z,98261.41
2022-10-15T04:00:26.687Z,98267.66
2022-10-15T04:01:35.637Z,98266.91
2022-10-15T04:02:38.698Z,98267.03
2022-10-15T04:03:44.864Z,98263.84
2022-10-15T04:04:47.896Z,98261.69
2022-10-15T04:05:54.154Z,98255.81
2022-10-15T04:07:02.545Z,98259.44
2022-10-15T04:08:08.500Z,98262.16
2022-10-15T04:09:15.798Z,98259.75
2022-10-15T04:10:19.859Z,98259.03
2022-10-15T04:11:22.814Z,98257.38
2022-10-15T04:12:36.916Z,98260.19
2022-10-15T04:13:39.975Z,98268.06
2022-10-15T04:14:44.094Z,98269.13
2022-10-15T04:15:47.157Z,98267.47
2022-10-15T04:16:51.347Z,98260.63
2022-10-15T04:17:59.048Z,98269.34
2022-10-15T04:19:07.348Z,98263.47
2022-10-15T04:20:13.191Z,98252.47
2022-10-15T04:21:21.743Z,98255.06
2022-10-15T04:22:33.408Z,98262.97
2022-10-15T04:23:38.274Z,98261.28
2022-10-15T04:25:11.500Z,98257.88
2022-10-15T04:26:14.399Z,98257.03
2022-10-15T04:27:18.450Z,98254.47
2022-10-15T04:28:21.448Z,98257.88
2022-10-15T04:29:25.514Z,98256.94
2022-10-15T04:30:29.704Z,98259.63
2022-10-15T04:31:37.736Z,98254.47
2022-10-15T04:32:41.338Z,98254.47
2022-10-15T04:33:45.646Z,98249.28
2022-10-15T04:34:49.537Z,98247.41
2022-10-15T04:36:02.341Z,98250.59
2022-10-15T04:37:26.798Z,98250.50
2022-10-15T04:38:31.235Z,98253.91
2022-10-15T04:39:38.173Z,98246.16
2022-10-15T04:40:41.337Z,98251.09
2022-10-15T04:41:45.407Z,98246.66
2022-10-15T04:42:50.534Z,98247.47
2022-10-15T04:43:55.768Z,98244.06
2022-10-15T04:44:58.769Z,98245.69
2022-10-15T04:46:05.161Z,98240.50
2022-10-15T04:47:08.165Z,98237.19
2022-10-15T04:48:24.615Z,98240.72
2022-10-15T04:49:27.586Z,98235.66
2022-10-15T04:50:32.351Z,98232.38
2022-10-15T04:51:55.705Z,98243.88
2022-10-15T04:53:07.334Z,98234.47
2022-10-15T04:54:17.188Z,98232.69
2022-10-15T04:55:32.715Z,98237.97
2022-10-15T04:56:38.504Z,98232.78
2022-10-15T04:57:41.404Z,98230.19
2022-10-15T04:58:47.114Z,98230.94
2022-10-15T04:59:56.877Z,98234.97
2022-10-15T05:01:01.896Z,98238.25
2022-10-15T05:02:10.764Z,98225.78
2022-10-15T05:03:14.317Z,98232.81
2022-10-15T05:04:26.971Z,98231.47
2022-10-15T05:05:29.998Z,98238.00
2022-10-15T05:06:36.547Z,98228.00
2022-10-15T05:08:01.497Z,98227.09
2022-10-15T05:09:05.639Z,98230.16
2022-10-15T05:10:11.482Z,98231.69
2022-10-15T05:11:16.035Z,98234.16
2022-10-15T05:12:20.684Z,98228.94
2022-10-15T05:13:24.035Z,98238.63
2022-10-15T05:14:28.417Z,98236.00
2022-10-15T05:15:50.567Z,98231.72
2022-10-15T05:16:57.891Z,98230.16
2022-10-15T05:18:02.787Z,98227.75
2022-10-15T05:19:14.875Z,98233.31
2022-10-15T05:20:18.124Z,98237.06
2022-10-15T05:21:23.244Z,98237.50
2022-10-15T05:22:30.114Z,98232.63
2022-10-15T05:23:37.147Z,98230.38
2022-10-15T05:24:59.496Z,98236.94
2022-10-15T05:26:12.307Z,98239.91
2022-10-15T05:27:16.334Z,98235.25
2022-10-15T05:28:19.365Z,98243.63
2022-10-15T05:29:23.515Z,98235.44
2022-10-15T05:30:26.506Z,98237.91
2022-10-15T05:31:32.656Z,98243.84
2022-10-15T05:33:02.646Z,98242.06
2022-10-15T05:34:09.112Z,98247.00
2022-10-15T05:35:23.283Z,98244.75
2022-10-15T05:36:31.915Z,98234.78
2022-10-15T05:37:36.104Z,98234.13
2022-10-15T05:38:39.875Z,98228.31
2022-10-15T05:39:43.974Z,98228.31
2022-10-15T05:40:49.366Z,98227.56
2022-10-15T05:41:58.654Z,98233.63
2022-10-15T05:43:19.965Z,98226.53
2022-10-15T05:44:25.742Z,98232.75
2022-10-15T05:45:28.713Z,98229.50
2022-10-15T05:46:38.530Z,98225.41
2022-10-15T05:47:41.518Z,98226.50
2022-10-15T05:48:55.769Z,98231.88
2022-10-15T05:49:58.884Z,98231.47
2022-10-15T05:51:09.707Z,98231.91
2022-10-15T05:52:12.807Z,98227.78
2022-10-15T05:53:55.605Z,98242.38
2022-10-15T05:54:58.576Z,98241.81
2022-10-15T05:56:02.534Z,98246.63
2022-10-15T05:57:08.625Z,98238.41
2022-10-15T05:58:12.626Z,98239.66
2022-10-15T05:59:15.616Z,98247.06
2022-10-15T06:00:19.624Z,98241.28
2022-10-15T06:01:29.564Z,98238.81
2022-10-15T06:02:32.612Z,98245.13
2022-10-15T06:03:36.965Z,98236.59
2022-10-15T06:04:39.856Z,98241.03
2022-10-15T06:05:43.998Z,98239.38
2022-10-15T06:06:47.033Z,98239.31
2022-10-15T06:07:50.984Z,98238.63
2022-10-15T06:08:55.735Z,98244.81
2022-10-15T06:09:58.654Z,98247.81
2022-10-15T06:11:09.354Z,98252.47
2022-10-15T06:12:13.919Z,98250.25
2022-10-15T06:13:18.129Z,98249.94
2022-10-15T06:14:22.875Z,98250.50
2022-10-15T06:15:25.795Z,98251.88
2022-10-15T06:16:30.111Z,98255.97
2022-10-15T06:17:33.326Z,98251.28
2022-10-15T06:18:38.736Z,98248.41
2022-10-15T06:19:41.694Z,98259.38
2022-10-15T06:20:45.991Z,98257.44
2022-10-15T06:21:51.516Z,98258.81
2022-10-15T06:22:58.766Z,98260.31
2022-10-15T06:24:03.137Z,98259.22
2022-10-15T06:25:11.197Z,98253.66
2022-10-15T06:26:14.337Z,98249.97
2022-10-15T06:27:20.588Z,98254.72
2022-10-15T06:28:23.770Z,98258.84
2022-10-15T06:29:28.043Z,98251.56
2022-10-15T06:30:32.331Z,98255.38
2022-10-15T06:31:36.383Z,98259.34
2022-10-15T06:32:39.555Z,98250.22
2022-10-15T06:33:43.621Z,98248.81
2022-10-15T06:34:46.965Z,98247.41
2022-10-15T06:35:51.064Z,98249.44
2022-10-15T06:36:54.046Z,98249.81
2022-10-15T06:38:03.165Z,98246.44
2022-10-15T06:39:07.034Z,98250.16
2022-10-15T06:40:12.177Z,98257.25
2022-10-15T06:41:19.094Z,98256.38
2022-10-15T06:42:24.761Z,98251.19
2022-10-15T06:43:34.799Z,98252.25
2022-10-15T06:44:39.856Z,98254.09
2022-10-15T06:45:43.605Z,98249.91
2022-10-15T06:46:53.783Z,98255.19
2022-10-15T06:47:56.835Z,98253.78
2022-10-15T06:49:01.089Z,98254.00
2022-10-15T06:50:05.562Z,98244.53
2022-10-15T06:51:10.652Z,98253.78
2022-10-15T06:52:13.650Z,98257.63
2022-10-15T06:53:17.644Z,98257.88
2022-10-15T06:54:20.617Z,98255.00
2022-10-15T06:55:24.696Z,98255.03
2022-10-15T06:56:28.076Z,98257.88
2022-10-15T06:57:33.715Z,98259.22
2022-10-15T06:58:36.884Z,98258.75
2022-10-15T06:59:41.580Z,98250.38
2022-10-15T07:00:44.707Z,98253.19
2022-10-15T07:01:48.766Z,98256.81
2022-10-15T07:02:51.925Z,98262.75
2022-10-15T07:03:55.904Z,98255.72
2022-10-15T07:04:58.836Z,98260.16
2022-10-15T07:06:04.887Z,98261.50
2022-10-15T07:07:08.036Z,98259.38
2022-10-15T07:08:16.812Z,98259.88
2022-10-15T07:09:23.305Z,98260.53
2022-10-15T07:10:27.303Z,98264.50
2022-10-15T07:11:31.474Z,98259.75
2022-10-15T07:12:36.579Z,98260.88
2022-10-15T07:13:42.096Z,98262.50
2022-10-15T07:14:45.398Z,98265.16
2022-10-15T07:15:54.162Z,98267.78
2022-10-15T07:16:57.868Z,98272.69
2022-10-15T07:18:02.644Z,98270.53
2022-10-15T07:19:05.815Z,98276.25
2022-10-15T07:20:10.369Z,98273.44
2022-10-15T07:21:13.356Z,98279.19
2022-10-15T07:22:17.352Z,98274.41
2022-10-15T07:23:24.078Z,98279.31
2022-10-15T07:24:31.084Z,98279.63
2022-10-15T07:25:34.072Z,98275.50
2022-10-15T07:26:38.306Z,98271.38
2022-10-15T07:27:42.797Z,98278.75
2022-10-15T07:28:46.901Z,98278.25
2022-10-15T07:29:49.936Z,98288.25
2022-10-15T07:30:54.266Z,98278.84
2022-10-15T07:31:57.228Z,98275.72
2022-10-15T07:33:01.409Z,98285.91
2022-10-15T07:34:04.345Z,98280.66
2022-10-15T07:35:08.859Z,98282.94
2022-10-15T07:36:13.116Z,98277.97
2022-10-15T07:37:18.936Z,98279.91
2022-10-15T07:38:21.905Z,98280.06
2022-10-15T07:39:25.899Z,98290.06
2022-10-15T07:40:28.875Z,98281.81
2022-10-15T07:41:32.942Z,98279.81
2022-10-15T07:42:35.945Z,98278.47
2022-10-15T07:43:41.305Z,98276.97
2022-10-15T07:44:44.199Z,98281.41
2022-10-15T07:45:51.158Z,98278.44
2022-10-15T07:46:55.134Z,98281.38
2022-10-15T07:47:58.057Z,98277.41
2022-10-15T07:49:02.074Z,98287.56
2022-10-15T07:50:05.528Z,98286.41
2022-10-15T07:51:09.677Z,98281.25
2022-10-15T07:52:12.715Z,98289.91
2022-10-15T07:53:18.188Z,98273.84
2022-10-15T07:54:29.272Z,98282.50
2022-10-15T07:55:32.147Z,98287.88
2022-10-15T07:56:36.183Z,98277.47
2022-10-15T07:57:39.365Z,98278.59
2022-10-15T07:58:51.867Z,98277.53
2022-10-15T07:59:54.857Z,98279.25
2022-10-15T08:01:01.564Z,98283.97
2022-10-15T08:02:05.592Z,98279.81
2022-10-15T08:03:08.506Z,98275.63
2022-10-15T08:04:12.447Z,98277.16
2022-10-15T08:05:16.484Z,98276.09
2022-10-15T08:06:20.506Z,98275.63
2022-10-15T08:07:23.528Z,98279.81
2022-10-15T08:08:27.508Z,98284.16
2022-10-15T08:09:31.424Z,98286.84
2022-10-15T08:10:34.401Z,98291.44
2022-10-15T08:11:38.413Z,98284.59
2022-10-15T08:12:43.764Z,98290.69
2022-10-15T08:13:49.623Z,98290.28
2022-10-15T08:14:52.536Z,98287.53
2022-10-15T08:15:59.380Z,98291.25
2022-10-15T08:17:03.648Z,98287.84
2022-10-15T08:18:07.676Z,98291.19
2022-10-15T08:19:10.547Z,98281.72
2022-10-15T08:20:14.706Z,98284.41
2022-10-15T08:21:17.706Z,98284.47
2022-10-15T08:22:22.030Z,98283.91
2022-10-15T08:23:25.263Z,98282.53
2022-10-15T08:24:30.363Z,98274.66
2022-10-15T08:25:33.434Z,98278.00
2022-10-15T08:26:38.446Z,98272.38
2022-10-15T08:27:41.427Z,98280.00
2022-10-15T08:28:45.406Z,98274.94
2022-10-15T08:29:49.826Z,98276.19
2022-10-15T08:30:53.797Z,98282.75
2022-10-15T08:31:56.765Z,98279.91
2022-10-15T08:33:00.733Z,98274.63
2022-10-15T08:34:05.115Z,98277.09
2022-10-15T08:35:08.756Z,98284.22
2022-10-15T08:36:12.694Z,98280.16
2022-10-15T08:37:16.646Z,98282.78
2022-10-15T08:38:20.713Z,98278.72
2022-10-15T08:39:23.601Z,98278.09
2022-10-15T08:40:28.256Z,98285.03
2022-10-15T08:41:35.966Z,98288.50
2022-10-15T08:42:41.927Z,98281.00
2022-10-15T08:43:47.157Z,98285.06
2022-10-15T08:44:57.566Z,98285.88
2022-10-15T08:46:11.192Z,98285.88
2022-10-15T08:47:26.675Z,98284.88
2022-10-15T08:48:32.684Z,98283.69
2022-10-15T08:49:43.797Z,98284.50
2022-10-15T08:50:53.306Z,98289.78
2022-10-15T08:52:02.802Z,98287.34
2022-10-15T08:53:07.078Z,98287.34
2022-10-15T08:54:14.376Z,98284.69
2022-10-15T08:55:20.198Z,98284.06
2022-10-15T08:56:26.437Z,98283.25
2022-10-15T08:57:38.213Z,98286.53
2022-10-15T08:58:47.685Z,98289.34
2022-10-15T08:59:55.415Z,98290.16
2022-10-15T09:01:03.488Z,98294.50
2022-10-15T09:02:14.323Z,98291.91
2022-10-15T09:03:28.545Z,98296.00
2022-10-15T09:04:36.257Z,98296.81
2022-10-15T09:05:47.774Z,98295.94
2022-10-15T09:06:55.216Z,98293.50
2022-10-15T09:08:06.754Z,98288.41
2022-10-15T09:09:16.264Z,98299.16
2022-10-15T09:10:38.715Z,98296.91
2022-10-15T09:11:49.224Z,98300.94
2022-10-15T09:12:57.664Z,98292.97
2022-10-15T09:14:00.665Z,98306.75
2022-10-15T09:15:07.495Z,98304.44
2022-10-15T09:16:15.583Z,98304.03
2022-10-15T09:17:23.038Z,98300.94
2022-10-15T09:18:29.194Z,98312.09
2022-10-15T09:19:33.889Z,98312.66
2022-10-15T09:20:39.546Z,98315.06
2022-10-15T09:21:42.946Z,98316.25
2022-10-15T09:22:47.554Z,98311.34
2022-10-15T09:23:50.616Z,98305.44
2022-10-15T09:24:54.756Z,98309.06
2022-10-15T09:26:04.463Z,98304.44
2022-10-15T09:27:11.707Z,98312.16
2022-10-15T09:28:18.067Z,98313.78
2022-10-15T09:29:25.425Z,98314.59
2022-10-15T09:30:34.960Z,98315.44
2022-10-15T09:31:43.597Z,98310.53
2022-10-15T09:32:51.983Z,98307.28
2022-10-15T09:34:04.752Z,98308.50
2022-10-15T09:35:15.833Z,98312.66
2022-10-15T09:36:31.208Z,98309.44
2022-10-15T09:37:39.524Z,98313.09
2022-10-15T09:38:49.740Z,98316.38
2022-10-15T09:40:04.552Z,98318.44
2022-10-15T09:41:17.487Z,98315.84
2022-10-15T09:42:28.924Z,98316.38
2022-10-15T09:43:36.448Z,98314.22
2022-10-15T09:44:42.333Z,98312.63
2022-10-15T09:45:47.910Z,98310.22
2022-10-15T09:46:53.522Z,98318.38
2022-10-15T09:48:11.908Z,98315.03
2022-10-15T09:49:24.728Z,98312.09
2022-10-15T09:50:46.705Z,98314.28
2022-10-15T09:52:13.482Z,98308.47
2022-10-15T09:53:28.515Z,98316.06
2022-10-15T09:54:41.364Z,98312.44
2022-10-15T09:55:48.692Z,98320.25
2022-10-15T09:57:05.481Z,98314.97
2022-10-15T09:58:16.162Z,98309.44
2022-10-15T09:59:21.971Z,98314.13
2022-10-15T10:00:24.965Z,98312.25
2022-10-15T10:01:31.316Z,98318.41
2022-10-15T10:02:34.411Z,98310.84
2022-10-15T10:03:41.430Z,98328.81
2022-10-15T10:04:44.867Z,98313.09
2022-10-15T10:05:49.285Z,98316.38
2022-10-15T10:06:54.865Z,98313.31
2022-10-15T10:08:09.962Z,98323.94
2022-10-15T10:09:17.946Z,98316.19
2022-10-15T10:10:27.276Z,98322.25
2022-10-15T10:11:48.883Z,98324.47
2022-10-15T10:12:52.453Z,98321.22
2022-10-15T10:14:02.754Z,98322.19
2022-10-15T10:15:09.987Z,98317.91
2022-10-15T10:16:15.794Z,98327.69
2022-10-15T10:17:21.742Z,98319.16
2022-10-15T10:18:26.717Z,98309.75
2022-10-15T10:19:29.634Z,98313.63
2022-10-15T10:20:36.657Z,98318.13
2022-10-15T10:21:42.315Z,98320.53
2022-10-15T10:22:51.232Z,98319.69
2022-10-15T10:23:54.825Z,98315.41
2022-10-15T10:24:58.785Z,98326.59
2022-10-15T10:26:03.249Z,98321.44
2022-10-15T10:27:20.345Z,98317.28
2022-10-15T10:28:29.123Z,98318.28
2022-10-15T10:29:38.040Z,98321.53
2022-10-15T10:30:49.925Z,98322.31
2022-10-15T10:31:54.494Z,98323.09
2022-10-15T10:33:08.528Z,98326.31
2022-10-15T10:34:17.735Z,98323.25
2022-10-15T10:35:22.966Z,98322.19
2022-10-15T10:36:29.012Z,98325.41
2022-10-15T10:37:43.424Z,98323.53
2022-10-15T10:38:56.713Z,98322.69
2022-10-15T10:40:02.204Z,98318.78
2022-10-15T10:41:09.693Z,98318.75
2022-10-15T10:42:29.762Z,98326.44
2022-10-15T10:43:39.110Z,98322.09
2022-10-15T10:44:46.708Z,98325.97
2022-10-15T10:45:58.893Z,98326.53
2022-10-15T10:47:04.135Z,98317.94
2022-10-15T10:48:22.528Z,98328.91
2022-10-15T10:49:32.177Z,98331.53
2022-10-15T10:50:40.839Z,98322.63
2022-10-15T10:51:50.105Z,98321.41
2022-10-15T10:52:54.401Z,98316.94
2022-10-15T10:54:01.150Z,98323.06
2022-10-15T10:55:07.927Z,98324.88
2022-10-15T10:56:13.816Z,98321.25
2022-10-15T10:57:20.858Z,98327.16
2022-10-15T10:58:27.139Z,98331.25
2022-10-15T10:59:34.928Z,98325.19
2022-10-15T11:00:40.624Z,98324.63
2022-10-15T11:01:44.633Z,98329.72
2022-10-15T11:02:47.906Z,98325.22
2022-10-15T11:03:53.305Z,98327.06
2022-10-15T11:04:56.996Z,98332.16
2022-10-15T11:06:09.124Z,98331.78
2022-10-15T11:07:20.006Z,98330.56
2022-10-15T11:08:28.025Z,98326.94
2022-10-15T11:09:43.886Z,98323.66
2022-10-15T11:10:51.284Z,98332.16
2022-10-15T11:12:05.252Z,98328.09
2022-10-15T11:13:28.897Z,98327.25
2022-10-15T11:14:46.705Z,98331.13
2022-10-15T11:15:57.535Z,98321.19
2022-10-15T11:17:04.199Z,98331.38
2022-10-15T11:18:26.947Z,98320.44
2022-10-15T11:20:06.212Z,98329.78
2022-10-15T11:21:07.669Z,98322.28
2022-10-15T11:22:21.738Z,98330.66
2022-10-15T11:23:38.167Z,98329.66
2022-10-15T11:24:49.117Z,98332.69
2022-10-15T11:26:02.484Z,98321.69
2022-10-15T11:27:15.864Z,98322.88
2022-10-15T11:28:32.186Z,98319.41
2022-10-15T11:29:41.608Z,98319.81
2022-10-15T11:30:51.856Z,98323.84
2022-10-15T11:32:03.011Z,98316.47
2022-10-15T11:33:49.814Z,98313.59
2022-10-15T11:35:12.299Z,98312.34
2022-10-15T11:36:39.275Z,98311.28
2022-10-15T11:37:48.814Z,98311.84
2022-10-15T11:39:02.262Z,98301.81
2022-10-15T11:40:14.286Z,98303.22
2022-10-15T11:41:30.791Z,98311.53
2022-10-15T11:42:37.704Z,98314.38
2022-10-15T11:43:53.003Z,98307.25
2022-10-15T11:45:07.934Z,98311.53
2022-10-15T11:46:23.515Z,98317.25
2022-10-15T11:47:43.058Z,98306.69
2022-10-15T11:48:57.074Z,98313.16
2022-10-15T11:50:16.406Z,98310.72
2022-10-15T11:51:27.758Z,98315.81
2022-10-15T11:52:51.967Z,98303.22
2022-10-15T11:54:19.843Z,98299.38
2022-10-15T11:55:26.094Z,98308.94
2022-10-15T11:56:35.035Z,98306.09
2022-10-15T11:57:42.934Z,98303.72
2022-10-15T11:58:49.185Z,98306.00
2022-10-15T11:59:56.311Z,98305.22
2022-10-15T12:01:01.658Z,98307.28
2022-10-15T12:02:10.545Z,98307.72
2022-10-15T12:03:16.869Z,98308.34
2022-10-15T12:04:32.707Z,98305.31
2022-10-15T12:05:40.837Z,98302.28
2022-10-15T12:06:48.659Z,98304.91
2022-10-15T12:07:51.667Z,98311.22
2022-10-15T12:08:59.716Z,98304.09
2022-10-15T12:10:10.083Z,98306.59
2022-10-15T12:11:24.625Z,98310.66
2022-10-15T12:12:35.131Z,98305.16
2022-10-15T12:13:42.555Z,98311.09
2022-10-15T12:14:51.576Z,98301.31
2022-10-15T12:16:01.405Z,98307.44
2022-10-15T12:17:11.153Z,98311.09
2022-10-15T12:18:19.485Z,98307.19
2022-10-15T12:19:26.933Z,98302.47
2022-10-15T12:20:30.175Z,98305.69
2022-10-15T12:21:41.326Z,98312.38
2022-10-15T12:22:55.625Z,98304.19
2022-10-15T12:23:59.655Z,98309.66
2022-10-15T12:25:05.762Z,98308.13
2022-10-15T12:26:28.008Z,98309.66
2022-10-15T12:27:35.834Z,98310.16
2022-10-15T12:28:48.652Z,98310.91
2022-10-15T12:29:54.527Z,98298.25
2022-10-15T12:31:02.184Z,98303.09
2022-10-15T12:32:05.604Z,98306.31
2022-10-15T12:33:26.321Z,98298.59
2022-10-15T12:34:41.177Z,98304.22
2022-10-15T12:35:44.113Z,98298.94
2022-10-15T12:37:01.285Z,98297.78
2022-10-15T12:38:22.244Z,98308.75
2022-10-15T12:39:51.706Z,98308.41
2022-10-15T12:40:58.067Z,98305.59
2022-10-15T12:42:02.388Z,98297.13
2022-10-15T12:43:14.691Z,98307.56
2022-10-15T12:45:39.019Z,98299.50
2022-10-15T12:46:44.575Z,98298.50
2022-10-15T12:47:49.059Z,98292.00
2022-10-15T12:48:57.412Z,98296.09
2022-10-15T12:50:04.272Z,98297.53
2022-10-15T12:51:41.697Z,98295.91
2022-10-15T12:52:58.769Z,98292.25
2022-10-15T12:54:02.931Z,98291.63
2022-10-15T12:55:30.945Z,98288.34
2022-10-15T12:56:42.020Z,98295.84
2022-10-15T12:57:55.989Z,98291.13
2022-10-15T12:58:59.953Z,98300.44
2022-10-15T13:00:05.018Z,98299.19
2022-10-15T13:01:29.572Z,98294.47
2022-10-15T13:03:56.376Z,98289.25
2022-10-15T13:04:59.507Z,98297.94
2022-10-15T13:06:34.115Z,98299.06
2022-10-15T13:07:40.942Z,98298.38
2022-10-15T13:08:49.683Z,98288.72
2022-10-15T13:09:53.191Z,98288.03
2022-10-15T13:11:02.464Z,98289.16
2022-10-15T13:12:06.654Z,98286.41
2022-10-15T13:13:15.025Z,98297.31
2022-10-15T13:14:25.445Z,98291.78
2022-10-15T13:15:31.897Z,98299.25
2022-10-15T13:16:37.204Z,98296.19
2022-10-15T13:17:40.481Z,98288.00